Cherry Spring, Texas
Current Conditions -  °F | °C
As of 5:15 PM on Friday 19 Dec 2014 (Local Time) from KT82 Reporting Station
Overcast Overcast  
Wind Chill: 50°   Ceiling: 1500
Heat Index: 50°   Visibility: 10mi
Dew Point: 45°   Wind: 6mph
Humidity: 82%   Direction: 40°NE
Pressure: 30.12"   Gusts: NA
Location:  30.3069°N, 98.8978°W
Report Text: KT82 192315Z AUTO 04005KT 10SM OVC015 10/07 A3012 RMK AO2 T01000070
Loading
Personal Weather Stations






























Interactive Weather Map New forecast layout! Learn more

10-Day Weather Forecast

Advertisements
Track Severe Weather on mobile